sensor_id;sensor_type;location;lat;lon;timestamp;P1;durP1;ratioP1;P2;durP2;ratioP2
25559;SDS011;13450;49.374;8.584;2023-07-28T00:00:42;3.17;;;1.63;;
25559;SDS011;13450;49.374;8.584;2023-07-28T00:03:09;3.37;;;1.70;;
25559;SDS011;13450;49.374;8.584;2023-07-28T00:05:36;3.35;;;1.50;;
25559;SDS011;13450;49.374;8.584;2023-07-28T00:08:01;3.13;;;1.30;;
25559;SDS011;13450;49.374;8.584;2023-07-28T00:10:27;3.53;;;1.80;;
25559;SDS011;13450;49.374;8.584;2023-07-28T00:12:52;4.40;;;1.90;;
25559;SDS011;13450;49.374;8.584;2023-07-28T00:15:20;5.72;;;2.05;;
25559;SDS011;13450;49.374;8.584;2023-07-28T00:17:47;4.10;;;1.65;;
25559;SDS011;13450;49.374;8.584;2023-07-28T00:20:13;4.38;;;1.90;;
25559;SDS011;13450;49.374;8.584;2023-07-28T00:22:40;3.55;;;1.48;;
25559;SDS011;13450;49.374;8.584;2023-07-28T00:25:06;3.22;;;1.58;;
25559;SDS011;13450;49.374;8.584;2023-07-28T00:27:31;4.72;;;1.63;;
25559;SDS011;13450;49.374;8.584;2023-07-28T00:29:56;5.10;;;1.92;;
25559;SDS011;13450;49.374;8.584;2023-07-28T00:32:22;6.18;;;2.15;;
25559;SDS011;13450;49.374;8.584;2023-07-28T00:34:47;2.80;;;1.42;;
25559;SDS011;13450;49.374;8.584;2023-07-28T00:37:12;3.97;;;1.85;;
25559;SDS011;13450;49.374;8.584;2023-07-28T00:39:38;3.28;;;1.30;;
25559;SDS011;13450;49.374;8.584;2023-07-28T00:42:03;6.00;;;1.67;;
25559;SDS011;13450;49.374;8.584;2023-07-28T00:44:29;3.60;;;1.70;;
25559;SDS011;13450;49.374;8.584;2023-07-28T00:46:56;4.03;;;1.77;;
25559;SDS011;13450;49.374;8.584;2023-07-28T00:49:22;4.30;;;1.70;;
25559;SDS011;13450;49.374;8.584;2023-07-28T00:51:52;4.10;;;1.80;;
25559;SDS011;13450;49.374;8.584;2023-07-28T00:54:21;3.35;;;1.63;;
25559;SDS011;13450;49.374;8.584;2023-07-28T00:56:46;6.32;;;1.85;;
25559;SDS011;13450;49.374;8.584;2023-07-28T00:59:11;3.97;;;1.48;;
25559;SDS011;13450;49.374;8.584;2023-07-28T01:01:38;2.90;;;1.35;;
25559;SDS011;13450;49.374;8.584;2023-07-28T01:04:05;2.85;;;1.35;;
25559;SDS011;13450;49.374;8.584;2023-07-28T01:09:14;3.42;;;1.65;;
25559;SDS011;13450;49.374;8.584;2023-07-28T01:11:53;2.67;;;1.08;;
25559;SDS011;13450;49.374;8.584;2023-07-28T01:14:19;3.80;;;1.25;;
25559;SDS011;13450;49.374;8.584;2023-07-28T01:16:44;4.10;;;1.48;;
25559;SDS011;13450;49.374;8.584;2023-07-28T01:19:09;2.72;;;1.23;;
25559;SDS011;13450;49.374;8.584;2023-07-28T01:21:37;3.80;;;1.80;;
25559;SDS011;13450;49.374;8.584;2023-07-28T01:24:06;4.25;;;1.35;;
25559;SDS011;13450;49.374;8.584;2023-07-28T01:26:36;4.53;;;1.35;;
25559;SDS011;13450;49.374;8.584;2023-07-28T01:29:03;3.47;;;1.70;;
25559;SDS011;13450;49.374;8.584;2023-07-28T01:31:29;2.75;;;1.20;;
25559;SDS011;13450;49.374;8.584;2023-07-28T01:33:55;2.72;;;1.20;;
25559;SDS011;13450;49.374;8.584;2023-07-28T01:36:20;4.18;;;1.60;;
25559;SDS011;13450;49.374;8.584;2023-07-28T01:38:46;2.38;;;1.13;;
25559;SDS011;13450;49.374;8.584;2023-07-28T01:41:11;4.45;;;1.50;;
25559;SDS011;13450;49.374;8.584;2023-07-28T01:43:37;2.60;;;1.10;;
25559;SDS011;13450;49.374;8.584;2023-07-28T01:46:02;3.63;;;1.30;;
25559;SDS011;13450;49.374;8.584;2023-07-28T01:48:27;2.90;;;1.35;;
25559;SDS011;13450;49.374;8.584;2023-07-28T01:50:53;4.05;;;1.67;;
25559;SDS011;13450;49.374;8.584;2023-07-28T01:53:18;3.67;;;1.42;;
25559;SDS011;13450;49.374;8.584;2023-07-28T01:55:43;2.83;;;1.42;;
25559;SDS011;13450;49.374;8.584;2023-07-28T01:58:08;3.00;;;1.40;;
25559;SDS011;13450;49.374;8.584;2023-07-28T02:00:34;2.58;;;1.30;;
25559;SDS011;13450;49.374;8.584;2023-07-28T02:03:02;2.97;;;1.30;;
25559;SDS011;13450;49.374;8.584;2023-07-28T02:05:28;2.92;;;1.35;;
25559;SDS011;13450;49.374;8.584;2023-07-28T02:07:54;2.95;;;1.48;;
25559;SDS011;13450;49.374;8.584;2023-07-28T02:10:21;3.78;;;1.50;;
25559;SDS011;13450;49.374;8.584;2023-07-28T02:12:48;2.83;;;1.23;;
25559;SDS011;13450;49.374;8.584;2023-07-28T02:15:14;3.30;;;1.50;;
25559;SDS011;13450;49.374;8.584;2023-07-28T02:17:39;3.85;;;1.60;;
25559;SDS011;13450;49.374;8.584;2023-07-28T02:20:05;4.43;;;1.48;;
25559;SDS011;13450;49.374;8.584;2023-07-28T02:22:30;3.25;;;1.35;;
25559;SDS011;13450;49.374;8.584;2023-07-28T02:24:56;4.13;;;1.80;;
25559;SDS011;13450;49.374;8.584;2023-07-28T02:27:21;4.60;;;1.77;;
25559;SDS011;13450;49.374;8.584;2023-07-28T02:29:46;3.47;;;1.45;;
25559;SDS011;13450;49.374;8.584;2023-07-28T02:32:12;3.28;;;1.42;;
25559;SDS011;13450;49.374;8.584;2023-07-28T02:34:38;3.17;;;1.48;;
25559;SDS011;13450;49.374;8.584;2023-07-28T02:37:03;2.90;;;1.30;;
25559;SDS011;13450;49.374;8.584;2023-07-28T02:39:29;2.50;;;1.40;;
25559;SDS011;13450;49.374;8.584;2023-07-28T02:41:54;2.53;;;1.38;;
25559;SDS011;13450;49.374;8.584;2023-07-28T02:44:19;3.60;;;1.90;;
25559;SDS011;13450;49.374;8.584;2023-07-28T02:46:44;4.20;;;1.92;;
25559;SDS011;13450;49.374;8.584;2023-07-28T02:49:10;3.03;;;1.45;;
25559;SDS011;13450;49.374;8.584;2023-07-28T02:51:35;4.50;;;1.55;;
25559;SDS011;13450;49.374;8.584;2023-07-28T02:54:00;3.78;;;1.63;;
25559;SDS011;13450;49.374;8.584;2023-07-28T02:56:26;3.25;;;1.50;;
25559;SDS011;13450;49.374;8.584;2023-07-28T02:58:54;2.95;;;1.40;;
25559;SDS011;13450;49.374;8.584;2023-07-28T03:01:19;2.92;;;1.40;;
25559;SDS011;13450;49.374;8.584;2023-07-28T03:03:45;3.88;;;1.70;;
25559;SDS011;13450;49.374;8.584;2023-07-28T03:06:12;4.15;;;1.60;;
25559;SDS011;13450;49.374;8.584;2023-07-28T03:08:37;6.00;;;1.40;;
25559;SDS011;13450;49.374;8.584;2023-07-28T03:11:05;3.45;;;1.33;;
25559;SDS011;13450;49.374;8.584;2023-07-28T03:13:30;3.42;;;1.58;;
25559;SDS011;13450;49.374;8.584;2023-07-28T03:15:56;4.75;;;1.70;;
25559;SDS011;13450;49.374;8.584;2023-07-28T03:18:21;3.03;;;1.58;;
25559;SDS011;13450;49.374;8.584;2023-07-28T03:20:46;4.00;;;1.63;;
25559;SDS011;13450;49.374;8.584;2023-07-28T03:23:12;5.20;;;1.98;;
25559;SDS011;13450;49.374;8.584;2023-07-28T03:25:37;2.10;;;1.00;;
25559;SDS011;13450;49.374;8.584;2023-07-28T03:28:03;3.65;;;1.65;;
25559;SDS011;13450;49.374;8.584;2023-07-28T03:30:28;2.58;;;1.10;;
25559;SDS011;13450;49.374;8.584;2023-07-28T03:32:53;3.28;;;1.50;;
25559;SDS011;13450;49.374;8.584;2023-07-28T03:35:18;3.92;;;1.50;;
25559;SDS011;13450;49.374;8.584;2023-07-28T03:37:46;3.97;;;1.88;;
25559;SDS011;13450;49.374;8.584;2023-07-28T03:40:11;4.25;;;1.65;;
25559;SDS011;13450;49.374;8.584;2023-07-28T03:42:37;3.00;;;1.30;;
25559;SDS011;13450;49.374;8.584;2023-07-28T03:45:02;5.25;;;1.63;;
25559;SDS011;13450;49.374;8.584;2023-07-28T03:47:28;2.28;;;1.20;;
25559;SDS011;13450;49.374;8.584;2023-07-28T03:49:56;3.00;;;1.27;;
25559;SDS011;13450;49.374;8.584;2023-07-28T03:52:24;2.78;;;1.33;;
25559;SDS011;13450;49.374;8.584;2023-07-28T03:54:51;3.05;;;1.40;;
25559;SDS011;13450;49.374;8.584;2023-07-28T03:57:19;3.58;;;1.33;;
25559;SDS011;13450;49.374;8.584;2023-07-28T03:59:44;3.80;;;1.27;;
25559;SDS011;13450;49.374;8.584;2023-07-28T04:02:10;3.95;;;1.50;;
25559;SDS011;13450;49.374;8.584;2023-07-28T04:04:35;3.03;;;1.30;;
25559;SDS011;13450;49.374;8.584;2023-07-28T04:07:04;3.05;;;1.20;;
25559;SDS011;13450;49.374;8.584;2023-07-28T04:09:29;3.03;;;1.40;;
25559;SDS011;13450;49.374;8.584;2023-07-28T04:11:54;3.05;;;1.20;;
25559;SDS011;13450;49.374;8.584;2023-07-28T04:14:20;3.58;;;1.30;;
25559;SDS011;13450;49.374;8.584;2023-07-28T04:16:45;2.50;;;1.10;;
25559;SDS011;13450;49.374;8.584;2023-07-28T04:19:10;3.97;;;1.58;;
25559;SDS011;13450;49.374;8.584;2023-07-28T04:21:36;2.42;;;1.40;;
25559;SDS011;13450;49.374;8.584;2023-07-28T04:24:05;3.42;;;1.73;;
25559;SDS011;13450;49.374;8.584;2023-07-28T04:26:34;3.05;;;1.20;;
25559;SDS011;13450;49.374;8.584;2023-07-28T04:28:59;3.72;;;1.45;;
25559;SDS011;13450;49.374;8.584;2023-07-28T04:31:24;3.75;;;1.20;;
25559;SDS011;13450;49.374;8.584;2023-07-28T04:33:52;3.28;;;1.00;;
25559;SDS011;13450;49.374;8.584;2023-07-28T04:36:17;6.07;;;1.30;;
25559;SDS011;13450;49.374;8.584;2023-07-28T04:38:43;2.72;;;1.05;;
25559;SDS011;13450;49.374;8.584;2023-07-28T04:41:08;3.55;;;1.10;;
25559;SDS011;13450;49.374;8.584;2023-07-28T04:43:33;3.13;;;1.38;;
25559;SDS011;13450;49.374;8.584;2023-07-28T04:45:59;2.55;;;1.23;;
25559;SDS011;13450;49.374;8.584;2023-07-28T04:48:24;3.60;;;1.00;;
25559;SDS011;13450;49.374;8.584;2023-07-28T04:50:49;2.53;;;1.02;;
25559;SDS011;13450;49.374;8.584;2023-07-28T04:53:15;2.92;;;1.27;;
25559;SDS011;13450;49.374;8.584;2023-07-28T04:55:40;3.42;;;1.17;;
25559;SDS011;13450;49.374;8.584;2023-07-28T04:58:05;1.92;;;0.90;;
25559;SDS011;13450;49.374;8.584;2023-07-28T05:00:31;2.53;;;0.90;;
25559;SDS011;13450;49.374;8.584;2023-07-28T05:02:56;2.45;;;1.10;;
25559;SDS011;13450;49.374;8.584;2023-07-28T05:05:22;2.08;;;0.90;;
25559;SDS011;13450;49.374;8.584;2023-07-28T05:07:47;3.42;;;1.08;;
25559;SDS011;13450;49.374;8.584;2023-07-28T05:10:12;2.92;;;0.90;;
25559;SDS011;13450;49.374;8.584;2023-07-28T05:12:38;2.78;;;0.90;;
25559;SDS011;13450;49.374;8.584;2023-07-28T05:15:04;3.20;;;1.10;;
25559;SDS011;13450;49.374;8.584;2023-07-28T05:17:30;2.65;;;1.15;;
25559;SDS011;13450;49.374;8.584;2023-07-28T05:20:00;2.33;;;1.10;;
25559;SDS011;13450;49.374;8.584;2023-07-28T05:22:25;4.25;;;1.10;;
25559;SDS011;13450;49.374;8.584;2023-07-28T05:24:51;2.80;;;0.88;;
25559;SDS011;13450;49.374;8.584;2023-07-28T05:27:16;4.13;;;1.15;;
25559;SDS011;13450;49.374;8.584;2023-07-28T05:29:41;2.10;;;0.90;;
25559;SDS011;13450;49.374;8.584;2023-07-28T05:32:07;1.88;;;0.80;;
25559;SDS011;13450;49.374;8.584;2023-07-28T05:34:32;2.30;;;0.93;;
25559;SDS011;13450;49.374;8.584;2023-07-28T05:36:58;2.72;;;0.90;;
25559;SDS011;13450;49.374;8.584;2023-07-28T05:39:23;2.25;;;0.85;;
25559;SDS011;13450;49.374;8.584;2023-07-28T05:41:48;2.00;;;0.90;;
25559;SDS011;13450;49.374;8.584;2023-07-28T05:44:14;2.63;;;1.00;;
25559;SDS011;13450;49.374;8.584;2023-07-28T05:46:39;2.35;;;0.90;;
25559;SDS011;13450;49.374;8.584;2023-07-28T05:49:04;2.50;;;0.98;;
25559;SDS011;13450;49.374;8.584;2023-07-28T05:51:30;2.40;;;0.90;;
25559;SDS011;13450;49.374;8.584;2023-07-28T05:53:58;2.47;;;0.93;;
25559;SDS011;13450;49.374;8.584;2023-07-28T05:56:24;1.75;;;0.70;;
25559;SDS011;13450;49.374;8.584;2023-07-28T05:58:49;1.40;;;0.63;;
25559;SDS011;13450;49.374;8.584;2023-07-28T06:01:15;3.20;;;0.90;;
25559;SDS011;13450;49.374;8.584;2023-07-28T06:03:40;1.92;;;0.90;;
25559;SDS011;13450;49.374;8.584;2023-07-28T06:06:08;2.67;;;0.95;;
25559;SDS011;13450;49.374;8.584;2023-07-28T06:08:33;2.55;;;0.95;;
25559;SDS011;13450;49.374;8.584;2023-07-28T06:10:59;2.67;;;0.88;;
25559;SDS011;13450;49.374;8.584;2023-07-28T06:13:24;2.08;;;0.90;;
25559;SDS011;13450;49.374;8.584;2023-07-28T06:15:51;2.33;;;1.10;;
25559;SDS011;13450;49.374;8.584;2023-07-28T06:18:18;2.00;;;0.97;;
25559;SDS011;13450;49.374;8.584;2023-07-28T06:20:45;1.80;;;0.98;;
25559;SDS011;13450;49.374;8.584;2023-07-28T06:23:11;2.78;;;1.20;;
25559;SDS011;13450;49.374;8.584;2023-07-28T06:25:36;4.47;;;2.17;;
25559;SDS011;13450;49.374;8.584;2023-07-28T06:28:07;4.20;;;1.50;;
25559;SDS011;13450;49.374;8.584;2023-07-28T06:30:32;2.40;;;1.13;;
25559;SDS011;13450;49.374;8.584;2023-07-28T06:32:58;3.10;;;1.40;;
25559;SDS011;13450;49.374;8.584;2023-07-28T06:35:23;6.68;;;1.25;;
25559;SDS011;13450;49.374;8.584;2023-07-28T06:37:48;2.75;;;1.30;;
25559;SDS011;13450;49.374;8.584;2023-07-28T06:40:14;4.40;;;1.48;;
25559;SDS011;13450;49.374;8.584;2023-07-28T06:42:39;3.60;;;1.48;;
25559;SDS011;13450;49.374;8.584;2023-07-28T06:45:04;3.00;;;1.38;;
25559;SDS011;13450;49.374;8.584;2023-07-28T06:47:30;4.22;;;1.40;;
25559;SDS011;13450;49.374;8.584;2023-07-28T06:49:55;3.33;;;1.40;;
25559;SDS011;13450;49.374;8.584;2023-07-28T06:52:21;3.90;;;1.50;;
25559;SDS011;13450;49.374;8.584;2023-07-28T06:54:47;3.20;;;1.30;;
25559;SDS011;13450;49.374;8.584;2023-07-28T06:57:14;2.70;;;1.33;;
25559;SDS011;13450;49.374;8.584;2023-07-28T06:59:39;3.08;;;1.63;;
25559;SDS011;13450;49.374;8.584;2023-07-28T07:02:07;2.83;;;1.35;;
25559;SDS011;13450;49.374;8.584;2023-07-28T07:04:33;3.35;;;1.50;;
25559;SDS011;13450;49.374;8.584;2023-07-28T07:06:58;3.20;;;1.50;;
25559;SDS011;13450;49.374;8.584;2023-07-28T07:09:23;3.50;;;1.73;;
25559;SDS011;13450;49.374;8.584;2023-07-28T07:11:49;5.57;;;1.58;;
25559;SDS011;13450;49.374;8.584;2023-07-28T07:14:15;3.40;;;1.60;;
25559;SDS011;13450;49.374;8.584;2023-07-28T07:16:40;4.07;;;1.80;;
25559;SDS011;13450;49.374;8.584;2023-07-28T07:19:08;2.78;;;1.30;;
25559;SDS011;13450;49.374;8.584;2023-07-28T07:21:34;3.92;;;1.40;;
25559;SDS011;13450;49.374;8.584;2023-07-28T07:23:59;3.72;;;1.13;;
25559;SDS011;13450;49.374;8.584;2023-07-28T07:26:25;2.53;;;1.23;;
25559;SDS011;13450;49.374;8.584;2023-07-28T07:28:50;2.75;;;1.23;;
25559;SDS011;13450;49.374;8.584;2023-07-28T07:31:15;2.40;;;1.15;;
25559;SDS011;13450;49.374;8.584;2023-07-28T07:33:41;3.85;;;1.30;;
25559;SDS011;13450;49.374;8.584;2023-07-28T07:36:17;3.85;;;1.70;;
25559;SDS011;13450;49.374;8.584;2023-07-28T07:38:43;3.53;;;1.00;;
25559;SDS011;13450;49.374;8.584;2023-07-28T07:41:12;3.33;;;1.45;;
25559;SDS011;13450;49.374;8.584;2023-07-28T07:46:06;2.67;;;0.90;;
25559;SDS011;13450;49.374;8.584;2023-07-28T07:48:32;2.15;;;0.98;;
25559;SDS011;13450;49.374;8.584;2023-07-28T07:50:59;3.85;;;1.20;;
25559;SDS011;13450;49.374;8.584;2023-07-28T07:53:25;2.65;;;1.00;;
25559;SDS011;13450;49.374;8.584;2023-07-28T07:55:52;2.90;;;1.00;;
25559;SDS011;13450;49.374;8.584;2023-07-28T07:58:18;2.22;;;1.20;;
25559;SDS011;13450;49.374;8.584;2023-07-28T08:00:43;3.58;;;1.20;;
25559;SDS011;13450;49.374;8.584;2023-07-28T08:03:09;3.00;;;1.00;;
25559;SDS011;13450;49.374;8.584;2023-07-28T08:05:35;3.13;;;1.00;;
25559;SDS011;13450;49.374;8.584;2023-07-28T08:08:00;2.70;;;1.20;;
25559;SDS011;13450;49.374;8.584;2023-07-28T08:10:26;2.60;;;1.20;;
25559;SDS011;13450;49.374;8.584;2023-07-28T08:12:55;2.65;;;1.23;;
25559;SDS011;13450;49.374;8.584;2023-07-28T08:15:22;2.33;;;1.10;;
25559;SDS011;13450;49.374;8.584;2023-07-28T08:17:48;2.65;;;1.10;;
25559;SDS011;13450;49.374;8.584;2023-07-28T08:20:16;1.80;;;0.80;;
25559;SDS011;13450;49.374;8.584;2023-07-28T08:22:41;1.52;;;0.80;;
25559;SDS011;13450;49.374;8.584;2023-07-28T08:25:07;2.70;;;1.23;;
25559;SDS011;13450;49.374;8.584;2023-07-28T08:27:35;3.88;;;1.35;;
25559;SDS011;13450;49.374;8.584;2023-07-28T08:30:01;2.15;;;1.02;;
25559;SDS011;13450;49.374;8.584;2023-07-28T08:32:29;2.53;;;1.00;;
25559;SDS011;13450;49.374;8.584;2023-07-28T08:34:54;3.78;;;1.20;;
25559;SDS011;13450;49.374;8.584;2023-07-28T08:37:19;2.35;;;1.20;;
25559;SDS011;13450;49.374;8.584;2023-07-28T08:39:44;2.00;;;1.05;;
25559;SDS011;13450;49.374;8.584;2023-07-28T08:42:10;3.22;;;1.30;;
25559;SDS011;13450;49.374;8.584;2023-07-28T08:44:35;2.28;;;1.00;;
25559;SDS011;13450;49.374;8.584;2023-07-28T08:47:03;3.22;;;1.30;;
25559;SDS011;13450;49.374;8.584;2023-07-28T08:49:30;3.13;;;0.98;;
25559;SDS011;13450;49.374;8.584;2023-07-28T08:52:02;3.00;;;0.90;;
25559;SDS011;13450;49.374;8.584;2023-07-28T08:54:30;2.53;;;1.02;;
25559;SDS011;13450;49.374;8.584;2023-07-28T08:56:58;1.95;;;0.93;;
25559;SDS011;13450;49.374;8.584;2023-07-28T08:59:24;2.65;;;1.42;;
25559;SDS011;13450;49.374;8.584;2023-07-28T09:01:52;1.70;;;0.90;;
25559;SDS011;13450;49.374;8.584;2023-07-28T09:06:47;3.42;;;1.10;;
25559;SDS011;13450;49.374;8.584;2023-07-28T09:09:14;2.40;;;1.00;;
25559;SDS011;13450;49.374;8.584;2023-07-28T09:11:50;2.28;;;1.10;;
25559;SDS011;13450;49.374;8.584;2023-07-28T09:14:18;2.58;;;1.10;;
25559;SDS011;13450;49.374;8.584;2023-07-28T09:16:44;2.83;;;1.10;;
25559;SDS011;13450;49.374;8.584;2023-07-28T09:19:10;2.47;;;1.00;;
25559;SDS011;13450;49.374;8.584;2023-07-28T09:21:37;2.33;;;1.05;;
25559;SDS011;13450;49.374;8.584;2023-07-28T09:24:04;1.80;;;0.95;;
25559;SDS011;13450;49.374;8.584;2023-07-28T09:26:41;2.17;;;1.00;;
25559;SDS011;13450;49.374;8.584;2023-07-28T09:29:14;2.63;;;1.02;;
25559;SDS011;13450;49.374;8.584;2023-07-28T09:31:41;4.43;;;1.00;;
25559;SDS011;13450;49.374;8.584;2023-07-28T09:34:11;2.08;;;0.90;;
25559;SDS011;13450;49.374;8.584;2023-07-28T09:36:37;1.48;;;0.80;;
25559;SDS011;13450;49.374;8.584;2023-07-28T09:39:03;3.20;;;1.17;;
25559;SDS011;13450;49.374;8.584;2023-07-28T09:41:32;3.17;;;0.90;;
25559;SDS011;13450;49.374;8.584;2023-07-28T09:44:00;1.73;;;0.80;;
25559;SDS011;13450;49.374;8.584;2023-07-28T09:46:28;2.30;;;0.90;;
25559;SDS011;13450;49.374;8.584;2023-07-28T09:48:56;2.20;;;0.80;;
25559;SDS011;13450;49.374;8.584;2023-07-28T09:53:53;1.92;;;0.80;;
25559;SDS011;13450;49.374;8.584;2023-07-28T09:56:25;2.22;;;0.90;;
25559;SDS011;13450;49.374;8.584;2023-07-28T09:58:54;2.83;;;0.98;;
25559;SDS011;13450;49.374;8.584;2023-07-28T10:01:21;3.33;;;1.17;;
25559;SDS011;13450;49.374;8.584;2023-07-28T10:03:48;2.03;;;0.95;;
25559;SDS011;13450;49.374;8.584;2023-07-28T10:06:14;1.45;;;0.75;;
25559;SDS011;13450;49.374;8.584;2023-07-28T10:08:41;2.67;;;1.20;;
25559;SDS011;13450;49.374;8.584;2023-07-28T10:11:08;2.00;;;1.00;;
25559;SDS011;13450;49.374;8.584;2023-07-28T10:13:41;2.60;;;0.95;;
25559;SDS011;13450;49.374;8.584;2023-07-28T10:16:08;2.10;;;1.08;;
25559;SDS011;13450;49.374;8.584;2023-07-28T10:18:34;2.22;;;1.10;;
25559;SDS011;13450;49.374;8.584;2023-07-28T10:21:04;5.72;;;1.30;;
25559;SDS011;13450;49.374;8.584;2023-07-28T10:23:30;2.80;;;1.30;;
25559;SDS011;13450;49.374;8.584;2023-07-28T10:26:02;3.20;;;1.17;;
25559;SDS011;13450;49.374;8.584;2023-07-28T10:31:03;2.55;;;1.20;;
25559;SDS011;13450;49.374;8.584;2023-07-28T10:33:32;2.27;;;1.10;;
25559;SDS011;13450;49.374;8.584;2023-07-28T10:35:59;2.42;;;1.10;;
25559;SDS011;13450;49.374;8.584;2023-07-28T10:38:36;2.97;;;1.17;;
25559;SDS011;13450;49.374;8.584;2023-07-28T10:41:05;2.50;;;1.10;;
25559;SDS011;13450;49.374;8.584;2023-07-28T10:43:32;3.47;;;1.10;;
25559;SDS011;13450;49.374;8.584;2023-07-28T10:45:58;2.42;;;1.17;;
25559;SDS011;13450;49.374;8.584;2023-07-28T10:48:25;3.78;;;1.13;;
25559;SDS011;13450;49.374;8.584;2023-07-28T10:50:52;2.50;;;1.10;;
25559;SDS011;13450;49.374;8.584;2023-07-28T10:53:18;2.55;;;1.23;;
25559;SDS011;13450;49.374;8.584;2023-07-28T10:55:44;2.88;;;1.20;;
25559;SDS011;13450;49.374;8.584;2023-07-28T10:58:10;1.88;;;1.05;;
25559;SDS011;13450;49.374;8.584;2023-07-28T11:00:35;2.60;;;1.30;;
25559;SDS011;13450;49.374;8.584;2023-07-28T11:03:00;3.22;;;1.30;;
25559;SDS011;13450;49.374;8.584;2023-07-28T11:07:59;3.13;;;1.20;;
25559;SDS011;13450;49.374;8.584;2023-07-28T11:10:30;2.58;;;1.20;;
25559;SDS011;13450;49.374;8.584;2023-07-28T11:12:57;3.38;;;1.20;;
25559;SDS011;13450;49.374;8.584;2023-07-28T11:15:25;2.65;;;1.25;;
25559;SDS011;13450;49.374;8.584;2023-07-28T11:17:51;2.75;;;1.20;;
25559;SDS011;13450;49.374;8.584;2023-07-28T11:22:51;3.30;;;1.20;;
25559;SDS011;13450;49.374;8.584;2023-07-28T11:25:21;2.50;;;1.05;;
25559;SDS011;13450;49.374;8.584;2023-07-28T11:27:48;2.03;;;1.00;;
25559;SDS011;13450;49.374;8.584;2023-07-28T11:30:15;2.92;;;1.00;;
25559;SDS011;13450;49.374;8.584;2023-07-28T11:32:44;2.42;;;1.13;;
25559;SDS011;13450;49.374;8.584;2023-07-28T11:35:12;2.17;;;1.00;;
25559;SDS011;13450;49.374;8.584;2023-07-28T11:37:39;2.10;;;1.00;;
25559;SDS011;13450;49.374;8.584;2023-07-28T11:40:05;1.88;;;0.90;;
25559;SDS011;13450;49.374;8.584;2023-07-28T11:42:54;2.00;;;1.00;;
25559;SDS011;13450;49.374;8.584;2023-07-28T11:45:21;2.00;;;1.00;;
25559;SDS011;13450;49.374;8.584;2023-07-28T11:47:54;2.60;;;0.82;;
25559;SDS011;13450;49.374;8.584;2023-07-28T11:50:25;1.75;;;0.95;;
25559;SDS011;13450;49.374;8.584;2023-07-28T11:52:52;2.00;;;0.90;;
25559;SDS011;13450;49.374;8.584;2023-07-28T11:55:18;1.27;;;0.70;;
25559;SDS011;13450;49.374;8.584;2023-07-28T11:57:45;1.88;;;0.95;;
25559;SDS011;13450;49.374;8.584;2023-07-28T12:00:14;2.95;;;1.00;;
25559;SDS011;13450;49.374;8.584;2023-07-28T12:02:42;2.53;;;1.13;;
25559;SDS011;13450;49.374;8.584;2023-07-28T12:05:16;2.45;;;1.10;;
25559;SDS011;13450;49.374;8.584;2023-07-28T12:07:47;2.42;;;1.20;;
25559;SDS011;13450;49.374;8.584;2023-07-28T12:10:13;1.73;;;0.85;;
25559;SDS011;13450;49.374;8.584;2023-07-28T12:12:40;1.85;;;0.90;;
25559;SDS011;13450;49.374;8.584;2023-07-28T12:15:24;2.30;;;1.02;;
25559;SDS011;13450;49.374;8.584;2023-07-28T12:20:35;1.98;;;1.10;;
25559;SDS011;13450;49.374;8.584;2023-07-28T12:23:15;2.30;;;1.00;;
25559;SDS011;13450;49.374;8.584;2023-07-28T12:25:42;2.65;;;1.00;;
25559;SDS011;13450;49.374;8.584;2023-07-28T12:28:09;2.50;;;0.90;;
25559;SDS011;13450;49.374;8.584;2023-07-28T12:30:35;3.53;;;1.00;;
25559;SDS011;13450;49.374;8.584;2023-07-28T12:33:02;2.08;;;0.90;;
25559;SDS011;13450;49.374;8.584;2023-07-28T12:35:28;1.65;;;0.80;;
25559;SDS011;13450;49.374;8.584;2023-07-28T12:37:58;2.63;;;0.82;;
25559;SDS011;13450;49.374;8.584;2023-07-28T12:40:29;2.90;;;0.88;;
25559;SDS011;13450;49.374;8.584;2023-07-28T12:42:55;1.85;;;0.80;;
25559;SDS011;13450;49.374;8.584;2023-07-28T12:45:22;2.75;;;0.80;;
25559;SDS011;13450;49.374;8.584;2023-07-28T12:47:47;2.47;;;0.80;;
25559;SDS011;13450;49.374;8.584;2023-07-28T12:50:13;3.78;;;1.02;;
25559;SDS011;13450;49.374;8.584;2023-07-28T12:52:38;2.20;;;1.10;;
25559;SDS011;13450;49.374;8.584;2023-07-28T12:55:03;1.98;;;1.00;;
25559;SDS011;13450;49.374;8.584;2023-07-28T12:57:30;2.42;;;0.90;;
25559;SDS011;13450;49.374;8.584;2023-07-28T12:59:56;3.30;;;1.20;;
25559;SDS011;13450;49.374;8.584;2023-07-28T13:02:24;2.70;;;1.15;;
25559;SDS011;13450;49.374;8.584;2023-07-28T13:04:49;2.47;;;1.13;;
25559;SDS011;13450;49.374;8.584;2023-07-28T13:07:14;2.92;;;1.33;;
25559;SDS011;13450;49.374;8.584;2023-07-28T13:09:40;3.65;;;1.20;;
25559;SDS011;13450;49.374;8.584;2023-07-28T13:12:07;2.97;;;1.10;;
25559;SDS011;13450;49.374;8.584;2023-07-28T13:14:33;4.43;;;1.20;;
25559;SDS011;13450;49.374;8.584;2023-07-28T13:16:59;2.60;;;1.10;;
25559;SDS011;13450;49.374;8.584;2023-07-28T13:19:24;3.03;;;1.00;;
25559;SDS011;13450;49.374;8.584;2023-07-28T13:21:50;3.08;;;1.33;;
25559;SDS011;13450;49.374;8.584;2023-07-28T13:24:15;3.75;;;1.20;;
25559;SDS011;13450;49.374;8.584;2023-07-28T13:26:40;4.10;;;1.23;;
25559;SDS011;13450;49.374;8.584;2023-07-28T13:29:06;3.33;;;1.10;;
25559;SDS011;13450;49.374;8.584;2023-07-28T13:31:32;2.97;;;1.45;;
25559;SDS011;13450;49.374;8.584;2023-07-28T13:33:57;4.80;;;1.65;;
25559;SDS011;13450;49.374;8.584;2023-07-28T13:36:23;3.72;;;1.35;;
25559;SDS011;13450;49.374;8.584;2023-07-28T13:38:48;2.08;;;1.00;;
25559;SDS011;13450;49.374;8.584;2023-07-28T13:41:14;3.20;;;1.30;;
25559;SDS011;13450;49.374;8.584;2023-07-28T13:43:39;3.85;;;1.60;;
25559;SDS011;13450;49.374;8.584;2023-07-28T13:46:05;2.58;;;1.20;;
25559;SDS011;13450;49.374;8.584;2023-07-28T13:48:31;3.63;;;1.48;;
25559;SDS011;13450;49.374;8.584;2023-07-28T13:50:57;3.15;;;1.42;;
25559;SDS011;13450;49.374;8.584;2023-07-28T13:53:22;2.83;;;1.20;;
25559;SDS011;13450;49.374;8.584;2023-07-28T13:55:48;4.68;;;1.50;;
25559;SDS011;13450;49.374;8.584;2023-07-28T13:58:14;2.40;;;1.17;;
25559;SDS011;13450;49.374;8.584;2023-07-28T14:00:39;3.60;;;1.45;;
25559;SDS011;13450;49.374;8.584;2023-07-28T14:03:04;2.40;;;1.20;;
25559;SDS011;13450;49.374;8.584;2023-07-28T14:05:29;3.28;;;1.48;;
25559;SDS011;13450;49.374;8.584;2023-07-28T14:07:57;3.20;;;1.20;;
25559;SDS011;13450;49.374;8.584;2023-07-28T14:10:22;3.47;;;1.30;;
25559;SDS011;13450;49.374;8.584;2023-07-28T14:12:49;2.72;;;1.20;;
25559;SDS011;13450;49.374;8.584;2023-07-28T14:15:15;4.07;;;1.27;;
25559;SDS011;13450;49.374;8.584;2023-07-28T14:17:40;3.47;;;1.38;;
25559;SDS011;13450;49.374;8.584;2023-07-28T14:20:06;3.53;;;1.50;;
25559;SDS011;13450;49.374;8.584;2023-07-28T14:22:31;3.58;;;1.42;;
25559;SDS011;13450;49.374;8.584;2023-07-28T14:24:57;3.60;;;1.52;;
25559;SDS011;13450;49.374;8.584;2023-07-28T14:27:25;3.47;;;1.47;;
25559;SDS011;13450;49.374;8.584;2023-07-28T14:29:50;3.90;;;1.50;;
25559;SDS011;13450;49.374;8.584;2023-07-28T14:32:15;2.88;;;1.20;;
25559;SDS011;13450;49.374;8.584;2023-07-28T14:34:45;4.10;;;1.45;;
25559;SDS011;13450;49.374;8.584;2023-07-28T14:37:12;3.50;;;1.58;;
25559;SDS011;13450;49.374;8.584;2023-07-28T14:39:38;3.72;;;1.60;;
25559;SDS011;13450;49.374;8.584;2023-07-28T14:42:03;2.80;;;1.50;;
25559;SDS011;13450;49.374;8.584;2023-07-28T14:44:29;3.13;;;1.65;;
25559;SDS011;13450;49.374;8.584;2023-07-28T14:46:54;3.95;;;1.67;;
25559;SDS011;13450;49.374;8.584;2023-07-28T14:49:22;4.68;;;1.70;;
25559;SDS011;13450;49.374;8.584;2023-07-28T14:51:47;3.53;;;1.58;;
25559;SDS011;13450;49.374;8.584;2023-07-28T14:54:13;4.03;;;1.38;;
25559;SDS011;13450;49.374;8.584;2023-07-28T14:56:38;2.75;;;1.27;;
25559;SDS011;13450;49.374;8.584;2023-07-28T14:59:06;4.47;;;1.58;;
25559;SDS011;13450;49.374;8.584;2023-07-28T15:01:31;4.85;;;1.48;;
25559;SDS011;13450;49.374;8.584;2023-07-28T15:03:57;3.05;;;1.40;;